sensor_id;sensor_type;location;lat;lon;timestamp;pressure;altitude;pressure_sealevel;temperature;humidity
30073;BME280;16897;52.422;13.678;2022-12-18T00:02:14;102890.25;;;-2.03;61.33
30073;BME280;16897;52.422;13.678;2022-12-18T00:06:17;102863.88;;;-2.28;61.41
30073;BME280;16897;52.422;13.678;2022-12-18T00:10:19;102905.59;;;-2.05;61.65
30073;BME280;16897;52.422;13.678;2022-12-18T00:14:21;102956.88;;;-1.74;61.60
30073;BME280;16897;52.422;13.678;2022-12-18T00:18:23;102915.81;;;-2.05;61.61
30073;BME280;16897;52.422;13.678;2022-12-18T00:22:25;102979.09;;;-1.73;61.59
30073;BME280;16897;52.422;13.678;2022-12-18T00:26:32;102955.59;;;-1.89;61.60
30073;BME280;16897;52.422;13.678;2022-12-18T00:30:36;102934.09;;;-1.94;61.36
30073;BME280;16897;52.422;13.678;2022-12-18T00:34:38;102952.00;;;-1.94;61.54
30073;BME280;16897;52.422;13.678;2022-12-18T00:38:40;102957.13;;;-1.94;61.60
30073;BME280;16897;52.422;13.678;2022-12-18T00:42:42;102931.13;;;-2.06;61.43
30073;BME280;16897;52.422;13.678;2022-12-18T00:46:59;102943.06;;;-2.07;61.56
30073;BME280;16897;52.422;13.678;2022-12-18T00:51:01;102956.91;;;-2.00;61.58
30073;BME280;16897;52.422;13.678;2022-12-18T00:55:04;102951.59;;;-2.06;61.42
30073;BME280;16897;52.422;13.678;2022-12-18T00:59:06;102939.81;;;-2.01;61.67
30073;BME280;16897;52.422;13.678;2022-12-18T01:03:09;102928.56;;;-2.06;61.68
30073;BME280;16897;52.422;13.678;2022-12-18T01:07:14;102946.03;;;-1.94;61.54
30073;BME280;16897;52.422;13.678;2022-12-18T01:11:19;102938.13;;;-2.01;61.35
30073;BME280;16897;52.422;13.678;2022-12-18T01:15:20;102936.25;;;-2.06;61.53
30073;BME280;16897;52.422;13.678;2022-12-18T01:19:22;102944.00;;;-2.03;61.72
30073;BME280;16897;52.422;13.678;2022-12-18T01:23:27;102940.34;;;-2.11;61.49
30073;BME280;16897;52.422;13.678;2022-12-18T01:27:28;102955.09;;;-2.04;61.54
30073;BME280;16897;52.422;13.678;2022-12-18T01:31:33;102960.00;;;-2.10;61.63
30073;BME280;16897;52.422;13.678;2022-12-18T01:35:41;102978.72;;;-2.11;61.61
30073;BME280;16897;52.422;13.678;2022-12-18T01:39:44;102967.22;;;-2.24;61.63
30073;BME280;16897;52.422;13.678;2022-12-18T01:43:56;102973.41;;;-2.17;61.55
30073;BME280;16897;52.422;13.678;2022-12-18T01:48:08;102974.19;;;-2.20;61.68
30073;BME280;16897;52.422;13.678;2022-12-18T01:52:11;102890.81;;;-2.64;61.47
30073;BME280;16897;52.422;13.678;2022-12-18T01:56:19;102949.06;;;-2.32;61.56
30073;BME280;16897;52.422;13.678;2022-12-18T02:00:23;102956.31;;;-2.18;61.40
30073;BME280;16897;52.422;13.678;2022-12-18T02:04:27;102950.69;;;-2.34;61.46
30073;BME280;16897;52.422;13.678;2022-12-18T02:17:22;102981.97;;;-2.41;61.39
30073;BME280;16897;52.422;13.678;2022-12-18T02:30:31;102987.38;;;-2.57;61.42
30073;BME280;16897;52.422;13.678;2022-12-18T02:34:38;102988.03;;;-2.63;61.37
30073;BME280;16897;52.422;13.678;2022-12-18T02:38:43;102997.50;;;-2.60;61.41
30073;BME280;16897;52.422;13.678;2022-12-18T02:42:49;103002.50;;;-2.63;61.38
30073;BME280;16897;52.422;13.678;2022-12-18T02:46:53;102987.47;;;-2.78;61.42
30073;BME280;16897;52.422;13.678;2022-12-18T03:00:08;102999.28;;;-2.82;61.44
30073;BME280;16897;52.422;13.678;2022-12-18T03:04:23;102999.84;;;-2.89;61.59
30073;BME280;16897;52.422;13.678;2022-12-18T03:08:36;103026.75;;;-2.76;61.53
30073;BME280;16897;52.422;13.678;2022-12-18T03:12:50;103017.16;;;-2.82;61.52
30073;BME280;16897;52.422;13.678;2022-12-18T03:17:00;103030.13;;;-2.77;61.38
30073;BME280;16897;52.422;13.678;2022-12-18T03:21:06;103000.63;;;-2.92;61.52
30073;BME280;16897;52.422;13.678;2022-12-18T03:25:14;103027.41;;;-2.82;61.43
30073;BME280;16897;52.422;13.678;2022-12-18T03:29:25;103030.72;;;-2.84;61.48
30073;BME280;16897;52.422;13.678;2022-12-18T03:33:54;103040.75;;;-2.89;61.54
30073;BME280;16897;52.422;13.678;2022-12-18T03:38:01;103035.53;;;-2.92;61.43
30073;BME280;16897;52.422;13.678;2022-12-18T03:42:22;102979.75;;;-3.26;61.58
30073;BME280;16897;52.422;13.678;2022-12-18T03:47:14;103019.97;;;-2.98;61.56
30073;BME280;16897;52.422;13.678;2022-12-18T03:51:37;102994.66;;;-3.15;61.37
30073;BME280;16897;52.422;13.678;2022-12-18T03:55:42;102994.72;;;-3.13;61.48
30073;BME280;16897;52.422;13.678;2022-12-18T03:59:49;103015.28;;;-3.10;61.75
30073;BME280;16897;52.422;13.678;2022-12-18T04:03:57;103041.28;;;-2.98;61.57
30073;BME280;16897;52.422;13.678;2022-12-18T04:08:01;103019.63;;;-3.07;61.33
30073;BME280;16897;52.422;13.678;2022-12-18T04:12:04;102968.84;;;-3.43;61.57
30073;BME280;16897;52.422;13.678;2022-12-18T04:16:07;103011.59;;;-3.17;61.46
30073;BME280;16897;52.422;13.678;2022-12-18T04:20:14;103009.75;;;-3.21;61.45
30073;BME280;16897;52.422;13.678;2022-12-18T04:24:18;103014.03;;;-3.20;61.58
30073;BME280;16897;52.422;13.678;2022-12-18T04:28:30;103033.16;;;-3.10;61.52
30073;BME280;16897;52.422;13.678;2022-12-18T04:32:34;103013.06;;;-3.23;61.49
30073;BME280;16897;52.422;13.678;2022-12-18T04:36:36;103032.97;;;-3.15;61.61
30073;BME280;16897;52.422;13.678;2022-12-18T04:40:39;103048.53;;;-3.08;61.48
30073;BME280;16897;52.422;13.678;2022-12-18T04:44:47;103048.44;;;-3.12;61.53
30073;BME280;16897;52.422;13.678;2022-12-18T04:48:49;103038.09;;;-3.15;61.59
30073;BME280;16897;52.422;13.678;2022-12-18T04:52:51;103039.72;;;-3.17;61.48
30073;BME280;16897;52.422;13.678;2022-12-18T04:56:52;103057.78;;;-3.12;61.49
30073;BME280;16897;52.422;13.678;2022-12-18T05:00:54;103052.44;;;-3.18;61.45
30073;BME280;16897;52.422;13.678;2022-12-18T05:04:56;103060.09;;;-3.18;61.60
30073;BME280;16897;52.422;13.678;2022-12-18T05:08:58;103028.09;;;-3.31;61.57
30073;BME280;16897;52.422;13.678;2022-12-18T05:13:00;103058.84;;;-3.07;61.72
30073;BME280;16897;52.422;13.678;2022-12-18T05:17:02;103012.81;;;-3.29;61.69
30073;BME280;16897;52.422;13.678;2022-12-18T05:21:05;103050.53;;;-3.01;61.86
30073;BME280;16897;52.422;13.678;2022-12-18T05:25:07;103063.59;;;-2.94;61.71
30073;BME280;16897;52.422;13.678;2022-12-18T05:29:09;103053.75;;;-3.05;61.70
30073;BME280;16897;52.422;13.678;2022-12-18T05:33:13;103067.28;;;-3.08;61.50
30073;BME280;16897;52.422;13.678;2022-12-18T05:37:15;103075.03;;;-3.06;61.61
30073;BME280;16897;52.422;13.678;2022-12-18T05:41:18;103033.13;;;-3.33;61.46
30073;BME280;16897;52.422;13.678;2022-12-18T05:45:20;103019.88;;;-3.45;61.54
30073;BME280;16897;52.422;13.678;2022-12-18T05:49:21;103063.03;;;-3.30;61.59
30073;BME280;16897;52.422;13.678;2022-12-18T05:53:23;103096.63;;;-3.21;61.45
30073;BME280;16897;52.422;13.678;2022-12-18T05:57:25;103113.13;;;-3.13;61.61
30073;BME280;16897;52.422;13.678;2022-12-18T06:01:27;103111.22;;;-3.18;61.61
30073;BME280;16897;52.422;13.678;2022-12-18T06:05:29;103108.66;;;-3.18;61.50
30073;BME280;16897;52.422;13.678;2022-12-18T06:09:35;103044.16;;;-3.54;61.55
30073;BME280;16897;52.422;13.678;2022-12-18T06:13:38;103115.25;;;-3.23;61.68
30073;BME280;16897;52.422;13.678;2022-12-18T06:17:40;103100.59;;;-3.27;61.66
30073;BME280;16897;52.422;13.678;2022-12-18T06:21:42;103128.38;;;-3.14;61.64
30073;BME280;16897;52.422;13.678;2022-12-18T06:25:43;103127.28;;;-3.21;61.80
30073;BME280;16897;52.422;13.678;2022-12-18T06:29:45;103135.38;;;-3.10;61.57
30073;BME280;16897;52.422;13.678;2022-12-18T06:33:47;103142.31;;;-3.07;61.72
30073;BME280;16897;52.422;13.678;2022-12-18T06:37:49;103104.47;;;-3.37;61.73
30073;BME280;16897;52.422;13.678;2022-12-18T06:41:51;103089.72;;;-3.44;61.64
30073;BME280;16897;52.422;13.678;2022-12-18T06:45:59;103145.28;;;-3.18;61.72
30073;BME280;16897;52.422;13.678;2022-12-18T06:50:02;103156.31;;;-3.19;61.66
30073;BME280;16897;52.422;13.678;2022-12-18T06:54:04;103172.56;;;-3.17;61.71
30073;BME280;16897;52.422;13.678;2022-12-18T06:58:06;103165.59;;;-3.21;61.83
30073;BME280;16897;52.422;13.678;2022-12-18T07:02:13;103164.66;;;-3.23;61.52
30073;BME280;16897;52.422;13.678;2022-12-18T07:06:19;103178.63;;;-3.15;61.83
30073;BME280;16897;52.422;13.678;2022-12-18T07:10:21;103164.59;;;-3.24;61.69
30073;BME280;16897;52.422;13.678;2022-12-18T07:14:23;103162.94;;;-3.24;61.81
30073;BME280;16897;52.422;13.678;2022-12-18T07:18:25;103168.41;;;-3.15;61.68
30073;BME280;16897;52.422;13.678;2022-12-18T07:22:27;103174.69;;;-3.06;61.75
30073;BME280;16897;52.422;13.678;2022-12-18T07:26:29;103097.91;;;-3.51;61.60
30073;BME280;16897;52.422;13.678;2022-12-18T07:30:37;103184.09;;;-3.05;61.65
30073;BME280;16897;52.422;13.678;2022-12-18T07:34:39;103187.25;;;-3.13;61.69
30073;BME280;16897;52.422;13.678;2022-12-18T07:38:40;103184.47;;;-3.17;61.69
30073;BME280;16897;52.422;13.678;2022-12-18T07:42:43;103194.28;;;-3.07;61.91
30073;BME280;16897;52.422;13.678;2022-12-18T07:46:45;103118.47;;;-3.48;61.56
30073;BME280;16897;52.422;13.678;2022-12-18T07:50:46;103173.88;;;-3.05;61.70
30073;BME280;16897;52.422;13.678;2022-12-18T07:54:48;103164.28;;;-3.11;61.80
30073;BME280;16897;52.422;13.678;2022-12-18T07:58:51;103179.19;;;-3.01;61.77
30073;BME280;16897;52.422;13.678;2022-12-18T08:02:53;103164.47;;;-3.06;61.72
30073;BME280;16897;52.422;13.678;2022-12-18T08:06:55;103184.53;;;-2.95;61.90
30073;BME280;16897;52.422;13.678;2022-12-18T08:10:57;103166.41;;;-3.01;61.88
30073;BME280;16897;52.422;13.678;2022-12-18T08:14:59;103169.03;;;-2.99;61.94
30073;BME280;16897;52.422;13.678;2022-12-18T08:19:01;103168.34;;;-2.95;61.67
30073;BME280;16897;52.422;13.678;2022-12-18T08:23:03;103172.94;;;-2.86;61.95
30073;BME280;16897;52.422;13.678;2022-12-18T08:27:05;103174.94;;;-2.79;62.05
30073;BME280;16897;52.422;13.678;2022-12-18T08:31:07;103172.56;;;-2.75;61.98
30073;BME280;16897;52.422;13.678;2022-12-18T08:35:09;103181.34;;;-2.68;61.96
30073;BME280;16897;52.422;13.678;2022-12-18T08:39:13;103186.63;;;-2.63;62.02
30073;BME280;16897;52.422;13.678;2022-12-18T08:43:14;103146.81;;;-2.79;62.02
30073;BME280;16897;52.422;13.678;2022-12-18T08:47:35;103162.44;;;-2.72;61.93
30073;BME280;16897;52.422;13.678;2022-12-18T08:51:37;103190.44;;;-2.54;61.92
30073;BME280;16897;52.422;13.678;2022-12-18T08:55:39;103191.31;;;-2.53;62.03
30073;BME280;16897;52.422;13.678;2022-12-18T08:59:41;103187.81;;;-2.55;61.98
30073;BME280;16897;52.422;13.678;2022-12-18T09:03:46;103191.66;;;-2.44;62.23
30073;BME280;16897;52.422;13.678;2022-12-18T09:07:48;103204.53;;;-2.41;62.01
30073;BME280;16897;52.422;13.678;2022-12-18T09:11:50;103217.63;;;-2.33;62.11
30073;BME280;16897;52.422;13.678;2022-12-18T09:15:54;103216.78;;;-2.34;61.94
30073;BME280;16897;52.422;13.678;2022-12-18T09:19:56;103196.13;;;-2.38;62.07
30073;BME280;16897;52.422;13.678;2022-12-18T09:23:58;103224.16;;;-2.19;61.97
30073;BME280;16897;52.422;13.678;2022-12-18T09:28:00;103193.84;;;-2.31;62.17
30073;BME280;16897;52.422;13.678;2022-12-18T09:32:04;103235.53;;;-2.11;62.10
30073;BME280;16897;52.422;13.678;2022-12-18T09:36:08;103244.91;;;-2.11;62.23
30073;BME280;16897;52.422;13.678;2022-12-18T09:40:21;103217.69;;;-2.09;62.07
30073;BME280;16897;52.422;13.678;2022-12-18T09:44:33;103224.91;;;-1.99;62.10
30073;BME280;16897;52.422;13.678;2022-12-18T09:48:42;103222.47;;;-1.96;62.04
30073;BME280;16897;52.422;13.678;2022-12-18T09:52:50;103213.03;;;-1.97;62.31
30073;BME280;16897;52.422;13.678;2022-12-18T09:56:54;103217.50;;;-1.91;62.24
30073;BME280;16897;52.422;13.678;2022-12-18T10:00:56;103188.25;;;-1.98;62.13
30073;BME280;16897;52.422;13.678;2022-12-18T10:10:14;103184.91;;;-1.95;61.92
30073;BME280;16897;52.422;13.678;2022-12-18T10:23:08;103161.44;;;-1.84;62.17
30073;BME280;16897;52.422;13.678;2022-12-18T10:27:21;103164.06;;;-1.82;62.05
30073;BME280;16897;52.422;13.678;2022-12-18T10:31:25;103166.53;;;-1.85;62.08
30073;BME280;16897;52.422;13.678;2022-12-18T10:35:27;103179.59;;;-1.77;62.06
30073;BME280;16897;52.422;13.678;2022-12-18T10:39:29;103162.22;;;-1.86;62.25
30073;BME280;16897;52.422;13.678;2022-12-18T10:43:34;103148.41;;;-1.90;62.17
30073;BME280;16897;52.422;13.678;2022-12-18T10:47:37;103158.84;;;-1.85;62.28
30073;BME280;16897;52.422;13.678;2022-12-18T10:51:43;103145.06;;;-1.89;62.19
30073;BME280;16897;52.422;13.678;2022-12-18T10:55:46;103150.50;;;-1.80;62.14
30073;BME280;16897;52.422;13.678;2022-12-18T10:59:54;103135.06;;;-1.81;62.37
30073;BME280;16897;52.422;13.678;2022-12-18T11:08:00;103067.59;;;-2.07;62.18
30073;BME280;16897;52.422;13.678;2022-12-18T11:12:22;103132.06;;;-1.69;62.09
30073;BME280;16897;52.422;13.678;2022-12-18T11:16:29;103121.56;;;-1.77;62.20
30073;BME280;16897;52.422;13.678;2022-12-18T11:20:36;103130.44;;;-1.67;62.15
30073;BME280;16897;52.422;13.678;2022-12-18T11:24:38;103104.41;;;-1.80;62.12
30073;BME280;16897;52.422;13.678;2022-12-18T11:29:08;103136.44;;;-1.67;62.07
30073;BME280;16897;52.422;13.678;2022-12-18T11:33:21;103094.91;;;-1.82;62.27
30073;BME280;16897;52.422;13.678;2022-12-18T11:37:34;103109.41;;;-1.83;62.37
30073;BME280;16897;52.422;13.678;2022-12-18T11:42:00;103107.66;;;-1.84;62.18
30073;BME280;16897;52.422;13.678;2022-12-18T11:46:23;103122.59;;;-1.72;62.27
30073;BME280;16897;52.422;13.678;2022-12-18T11:54:55;103125.53;;;-1.61;62.21
30073;BME280;16897;52.422;13.678;2022-12-18T12:04:24;103127.59;;;-1.51;62.28
30073;BME280;16897;52.422;13.678;2022-12-18T12:21:47;103139.66;;;-1.47;62.25
30073;BME280;16897;52.422;13.678;2022-12-18T12:35:49;103154.53;;;-1.37;62.26
30073;BME280;16897;52.422;13.678;2022-12-18T12:39:54;103136.28;;;-1.46;62.17
30073;BME280;16897;52.422;13.678;2022-12-18T12:43:59;103160.63;;;-1.33;62.35
30073;BME280;16897;52.422;13.678;2022-12-18T12:48:07;103167.53;;;-1.30;62.36
30073;BME280;16897;52.422;13.678;2022-12-18T12:52:33;103173.69;;;-1.25;62.37
30073;BME280;16897;52.422;13.678;2022-12-18T12:57:03;103175.47;;;-1.23;62.29
30073;BME280;16897;52.422;13.678;2022-12-18T13:05:53;103145.66;;;-1.21;62.48
30073;BME280;16897;52.422;13.678;2022-12-18T13:10:36;103117.47;;;-1.21;62.34
30073;BME280;16897;52.422;13.678;2022-12-18T13:14:40;103099.53;;;-1.19;62.38
30073;BME280;16897;52.422;13.678;2022-12-18T13:18:55;103110.03;;;-1.12;62.39
30073;BME280;16897;52.422;13.678;2022-12-18T13:22:59;103129.84;;;-1.07;62.43
30073;BME280;16897;52.422;13.678;2022-12-18T13:27:57;103134.22;;;-1.05;62.32
30073;BME280;16897;52.422;13.678;2022-12-18T13:32:01;103135.84;;;-1.07;62.21
30073;BME280;16897;52.422;13.678;2022-12-18T13:44:41;103120.16;;;-1.16;62.19
30073;BME280;16897;52.422;13.678;2022-12-18T13:53:44;103129.53;;;-1.17;62.13
30073;BME280;16897;52.422;13.678;2022-12-18T13:57:44;103109.00;;;-1.18;62.18
30073;BME280;16897;52.422;13.678;2022-12-18T14:01:54;103093.47;;;-1.23;62.14
30073;BME280;16897;52.422;13.678;2022-12-18T14:06:03;103099.59;;;-1.18;62.30
30073;BME280;16897;52.422;13.678;2022-12-18T14:10:13;103080.72;;;-1.21;62.33
30073;BME280;16897;52.422;13.678;2022-12-18T14:14:17;103103.03;;;-1.17;62.31
30073;BME280;16897;52.422;13.678;2022-12-18T14:22:45;103070.16;;;-1.30;62.35
30073;BME280;16897;52.422;13.678;2022-12-18T14:26:49;103105.84;;;-1.09;62.41
30073;BME280;16897;52.422;13.678;2022-12-18T14:30:51;103097.22;;;-1.12;62.27
30073;BME280;16897;52.422;13.678;2022-12-18T14:34:54;103081.81;;;-1.13;62.20
30073;BME280;16897;52.422;13.678;2022-12-18T14:38:58;103071.69;;;-1.08;62.22
30073;BME280;16897;52.422;13.678;2022-12-18T14:43:02;103058.69;;;-1.15;62.44
30073;BME280;16897;52.422;13.678;2022-12-18T14:47:04;103059.78;;;-1.06;62.38
30073;BME280;16897;52.422;13.678;2022-12-18T14:51:18;102969.63;;;-1.49;62.17
30073;BME280;16897;52.422;13.678;2022-12-18T14:55:21;103047.91;;;-1.03;62.39
30073;BME280;16897;52.422;13.678;2022-12-18T14:59:24;103036.69;;;-1.08;62.20
30073;BME280;16897;52.422;13.678;2022-12-18T15:03:27;102990.53;;;-1.35;62.25
30073;BME280;16897;52.422;13.678;2022-12-18T15:07:46;103040.06;;;-1.09;62.24
30073;BME280;16897;52.422;13.678;2022-12-18T15:11:48;103033.13;;;-1.12;62.29
30073;BME280;16897;52.422;13.678;2022-12-18T15:15:54;103044.91;;;-1.18;62.28
30073;BME280;16897;52.422;13.678;2022-12-18T15:20:08;103032.13;;;-1.44;62.18
30073;BME280;16897;52.422;13.678;2022-12-18T15:24:27;103078.84;;;-1.25;62.20
30073;BME280;16897;52.422;13.678;2022-12-18T15:28:50;103089.09;;;-1.25;62.29
30073;BME280;16897;52.422;13.678;2022-12-18T15:33:17;103054.41;;;-1.43;62.37
30073;BME280;16897;52.422;13.678;2022-12-18T15:37:17;103053.63;;;-1.40;62.15
30073;BME280;16897;52.422;13.678;2022-12-18T15:41:21;103071.91;;;-1.29;62.26
30073;BME280;16897;52.422;13.678;2022-12-18T15:45:23;103078.03;;;-1.24;62.37
30073;BME280;16897;52.422;13.678;2022-12-18T15:49:25;103061.53;;;-1.33;62.31
30073;BME280;16897;52.422;13.678;2022-12-18T15:53:32;103070.31;;;-1.26;62.34
30073;BME280;16897;52.422;13.678;2022-12-18T15:57:34;103063.47;;;-1.25;62.42
30073;BME280;16897;52.422;13.678;2022-12-18T16:01:36;103070.47;;;-1.21;62.19
30073;BME280;16897;52.422;13.678;2022-12-18T16:05:38;103067.91;;;-1.21;62.26
30073;BME280;16897;52.422;13.678;2022-12-18T16:09:41;103065.34;;;-1.20;62.23
30073;BME280;16897;52.422;13.678;2022-12-18T16:13:43;103042.25;;;-1.21;62.35
30073;BME280;16897;52.422;13.678;2022-12-18T16:17:47;103035.03;;;-1.33;62.30
30073;BME280;16897;52.422;13.678;2022-12-18T16:21:52;103026.44;;;-1.35;62.18
30073;BME280;16897;52.422;13.678;2022-12-18T16:25:54;103022.13;;;-1.36;62.12
30073;BME280;16897;52.422;13.678;2022-12-18T16:29:55;103025.72;;;-1.31;62.15
30073;BME280;16897;52.422;13.678;2022-12-18T16:34:21;103021.22;;;-1.38;62.17
30073;BME280;16897;52.422;13.678;2022-12-18T16:38:24;103013.53;;;-1.38;62.32
30073;BME280;16897;52.422;13.678;2022-12-18T16:42:26;103028.34;;;-1.29;62.39
30073;BME280;16897;52.422;13.678;2022-12-18T16:46:28;103028.28;;;-1.31;62.40
30073;BME280;16897;52.422;13.678;2022-12-18T16:50:30;103030.00;;;-1.30;62.40
30073;BME280;16897;52.422;13.678;2022-12-18T16:54:32;102992.91;;;-1.43;62.24
30073;BME280;16897;52.422;13.678;2022-12-18T16:58:35;102994.72;;;-1.39;62.19
30073;BME280;16897;52.422;13.678;2022-12-18T17:02:38;102986.84;;;-1.45;62.15
30073;BME280;16897;52.422;13.678;2022-12-18T17:06:43;102969.44;;;-1.55;62.13
30073;BME280;16897;52.422;13.678;2022-12-18T17:10:45;103014.59;;;-1.31;62.07
30073;BME280;16897;52.422;13.678;2022-12-18T17:14:47;103030.06;;;-1.28;62.18
30073;BME280;16897;52.422;13.678;2022-12-18T17:18:49;103024.00;;;-1.30;62.29
30073;BME280;16897;52.422;13.678;2022-12-18T17:22:51;103022.31;;;-1.30;62.01
30073;BME280;16897;52.422;13.678;2022-12-18T17:26:52;102980.63;;;-1.53;62.11
30073;BME280;16897;52.422;13.678;2022-12-18T17:30:55;103003.78;;;-1.50;62.07
30073;BME280;16897;52.422;13.678;2022-12-18T17:34:57;103028.97;;;-1.37;61.99
30073;BME280;16897;52.422;13.678;2022-12-18T17:39:00;103001.81;;;-1.57;62.17
30073;BME280;16897;52.422;13.678;2022-12-18T17:43:02;103000.25;;;-1.53;61.99
30073;BME280;16897;52.422;13.678;2022-12-18T17:47:04;103015.75;;;-1.49;61.99
30073;BME280;16897;52.422;13.678;2022-12-18T17:51:09;103020.84;;;-1.50;62.06
30073;BME280;16897;52.422;13.678;2022-12-18T17:55:11;103033.50;;;-1.55;61.99
30073;BME280;16897;52.422;13.678;2022-12-18T17:59:12;103026.31;;;-1.65;61.82
30073;BME280;16897;52.422;13.678;2022-12-18T18:03:14;103009.84;;;-1.73;62.08
30073;BME280;16897;52.422;13.678;2022-12-18T18:07:16;102944.75;;;-2.07;62.05
30073;BME280;16897;52.422;13.678;2022-12-18T18:11:20;102977.13;;;-1.82;61.93
30073;BME280;16897;52.422;13.678;2022-12-18T18:15:40;103010.88;;;-1.68;61.91
30073;BME280;16897;52.422;13.678;2022-12-18T18:19:42;102972.88;;;-1.82;61.97
30073;BME280;16897;52.422;13.678;2022-12-18T18:23:44;102979.00;;;-1.76;61.94
30073;BME280;16897;52.422;13.678;2022-12-18T18:27:45;102948.69;;;-1.91;61.92
30073;BME280;16897;52.422;13.678;2022-12-18T18:31:47;102957.41;;;-1.85;61.87
30073;BME280;16897;52.422;13.678;2022-12-18T18:35:48;102960.81;;;-1.86;61.97
30073;BME280;16897;52.422;13.678;2022-12-18T18:39:50;102901.69;;;-2.19;61.84
30073;BME280;16897;52.422;13.678;2022-12-18T18:43:56;102964.16;;;-1.87;61.94
30073;BME280;16897;52.422;13.678;2022-12-18T18:47:59;102958.91;;;-1.91;61.98
30073;BME280;16897;52.422;13.678;2022-12-18T18:52:00;102933.25;;;-1.93;62.02
30073;BME280;16897;52.422;13.678;2022-12-18T18:56:05;102921.03;;;-2.02;61.86
30073;BME280;16897;52.422;13.678;2022-12-18T19:00:08;102921.06;;;-2.00;61.86
30073;BME280;16897;52.422;13.678;2022-12-18T19:04:10;102897.84;;;-2.06;61.82
30073;BME280;16897;52.422;13.678;2022-12-18T19:08:12;102893.41;;;-2.12;61.92
30073;BME280;16897;52.422;13.678;2022-12-18T19:12:13;102889.06;;;-2.14;61.84
30073;BME280;16897;52.422;13.678;2022-12-18T19:16:34;102900.91;;;-2.16;61.57
30073;BME280;16897;52.422;13.678;2022-12-18T19:20:35;102897.47;;;-2.18;61.81
30073;BME280;16897;52.422;13.678;2022-12-18T19:24:37;102861.97;;;-2.35;61.79
30073;BME280;16897;52.422;13.678;2022-12-18T19:28:40;102864.47;;;-2.36;61.93
30073;BME280;16897;52.422;13.678;2022-12-18T19:32:42;102886.22;;;-2.24;61.91
30073;BME280;16897;52.422;13.678;2022-12-18T19:36:43;102872.06;;;-2.38;61.92
30073;BME280;16897;52.422;13.678;2022-12-18T19:40:45;102890.09;;;-2.35;61.75
30073;BME280;16897;52.422;13.678;2022-12-18T19:44:47;102884.06;;;-2.37;62.03
30073;BME280;16897;52.422;13.678;2022-12-18T19:48:49;102861.56;;;-2.47;62.07
30073;BME280;16897;52.422;13.678;2022-12-18T19:52:51;102889.38;;;-2.31;62.00
30073;BME280;16897;52.422;13.678;2022-12-18T19:56:53;102879.88;;;-2.35;61.98
30073;BME280;16897;52.422;13.678;2022-12-18T20:00:54;102885.09;;;-2.32;61.94
30073;BME280;16897;52.422;13.678;2022-12-18T20:04:56;102874.88;;;-2.30;62.10
30073;BME280;16897;52.422;13.678;2022-12-18T20:09:03;102825.44;;;-2.56;61.98
30073;BME280;16897;52.422;13.678;2022-12-18T20:13:05;102860.31;;;-2.33;62.00
30073;BME280;16897;52.422;13.678;2022-12-18T20:17:07;102864.72;;;-2.29;61.97
30073;BME280;16897;52.422;13.678;2022-12-18T20:21:09;102837.00;;;-2.42;61.94
30073;BME280;16897;52.422;13.678;2022-12-18T20:25:10;102878.53;;;-2.24;61.80
30073;BME280;16897;52.422;13.678;2022-12-18T20:29:12;102838.94;;;-2.35;61.91
30073;BME280;16897;52.422;13.678;2022-12-18T20:33:14;102842.47;;;-2.31;62.04
30073;BME280;16897;52.422;13.678;2022-12-18T20:37:16;102833.94;;;-2.30;61.91
30073;BME280;16897;52.422;13.678;2022-12-18T20:41:21;102852.88;;;-2.25;61.93
30073;BME280;16897;52.422;13.678;2022-12-18T20:45:23;102842.50;;;-2.30;61.96
30073;BME280;16897;52.422;13.678;2022-12-18T20:49:25;102844.28;;;-2.27;61.98
30073;BME280;16897;52.422;13.678;2022-12-18T20:53:27;102818.91;;;-2.48;61.96
30073;BME280;16897;52.422;13.678;2022-12-18T20:57:29;102858.72;;;-2.29;62.04
30073;BME280;16897;52.422;13.678;2022-12-18T21:01:31;102839.84;;;-2.33;62.16
30073;BME280;16897;52.422;13.678;2022-12-18T21:05:33;102825.34;;;-2.32;62.03
30073;BME280;16897;52.422;13.678;2022-12-18T21:09:34;102833.28;;;-2.25;61.95
30073;BME280;16897;52.422;13.678;2022-12-18T21:13:36;102757.06;;;-2.62;62.10
30073;BME280;16897;52.422;13.678;2022-12-18T21:17:38;102822.03;;;-2.30;61.85
30073;BME280;16897;52.422;13.678;2022-12-18T21:21:40;102800.25;;;-2.44;62.01
30073;BME280;16897;52.422;13.678;2022-12-18T21:25:42;102831.44;;;-2.29;62.06
30073;BME280;16897;52.422;13.678;2022-12-18T21:29:44;102831.53;;;-2.26;61.96
30073;BME280;16897;52.422;13.678;2022-12-18T21:33:47;102799.75;;;-2.32;61.89
30073;BME280;16897;52.422;13.678;2022-12-18T21:37:48;102816.97;;;-2.28;62.19
30073;BME280;16897;52.422;13.678;2022-12-18T21:41:51;102767.53;;;-2.54;61.84
30073;BME280;16897;52.422;13.678;2022-12-18T21:46:11;102799.88;;;-2.29;62.04
30073;BME280;16897;52.422;13.678;2022-12-18T21:50:14;102703.47;;;-2.86;61.98
30073;BME280;16897;52.422;13.678;2022-12-18T21:54:19;102805.00;;;-2.29;62.14
30073;BME280;16897;52.422;13.678;2022-12-18T21:58:21;102767.06;;;-2.42;62.04
30073;BME280;16897;52.422;13.678;2022-12-18T22:02:23;102802.38;;;-2.31;61.90
30073;BME280;16897;52.422;13.678;2022-12-18T22:06:24;102784.28;;;-2.37;62.03
30073;BME280;16897;52.422;13.678;2022-12-18T22:10:26;102798.28;;;-2.26;62.08
30073;BME280;16897;52.422;13.678;2022-12-18T22:14:27;102796.50;;;-2.28;62.00
30073;BME280;16897;52.422;13.678;2022-12-18T22:18:29;102773.13;;;-2.39;62.18
30073;BME280;16897;52.422;13.678;2022-12-18T22:22:31;102783.75;;;-2.27;62.02
30073;BME280;16897;52.422;13.678;2022-12-18T22:26:35;102771.63;;;-2.32;62.04
30073;BME280;16897;52.422;13.678;2022-12-18T22:30:37;102779.59;;;-2.23;62.11
30073;BME280;16897;52.422;13.678;2022-12-18T22:34:38;102761.59;;;-2.26;62.09
30073;BME280;16897;52.422;13.678;2022-12-18T22:38:40;102711.34;;;-2.51;62.03
30073;BME280;16897;52.422;13.678;2022-12-18T22:42:41;102753.41;;;-2.14;62.09
30073;BME280;16897;52.422;13.678;2022-12-18T22:46:46;102746.56;;;-2.15;61.98